Airfield :







YOU CAN JOIN US ON...

 
LOGIN :

Register | Disclaimer

   EN    FR    IT 

 









Legend :    VFR   Marginal VFR   IFR   Intensive IFR   Very Intensive IFR
Visi :
Ceiling :
>= 8 km
>= 3000ft
5 to 8 km
1000 to 3000 ft
1500m to 5 km
500 to 1000 ft
800 to 1500m
200 to 500 ft
< 800m
< 200 ft
Symbols :   Thunderstorms  Fog  Heavy snow  Heavy precipitations  Wind > 20 kt






- Airport Elevation : 403 ft
- IATA code : YKG


CYAS - Kangirsuk

CURRENT METAR :
  • 021900Z 06028G35KT 15SM -SN DRSN FEW013 BKN200 M11/M15 A3094 RMK ST2CS5 SLP493

EXPIRED METARs :
  • 021800Z 07027G35KT 15SM -SN DRSN FEW014 BKN200 M11/M15 A3095 RMK ST2CS5 SLP496
  • 021700Z 07028G34KT 15SM -SN DRSN FEW013 OVC200 M11/M15 A3095 RMK ST2CS6 SLP497

TAF AMD TAF CYAS
Valid from the 02 at 17:00 until the 02 at 21:00 UTC


021718Z 0217/0221 07027G37KT P6SM FEW013 BKN200
TEMPO 0217/0221 5SM IC BLSN RMK NXT FCST WILL BE ISSUED AT 031345Z



MET'MAP, your aeronautical weather chart ! - Copyright ORBIFLY December 2007 - Disclaimer

ORBIFLY MET'MAP TEAM :

Programming & Development : Alexandra Zaïnal
Concept & original design : Baudouin d'Aumeries
Assistance for programming : Marc-Olivier Méhu
Technical & hardware support : Manuel Goepfert

Contact : metmap@orbifly.com




SOURCES & CREDITS :

   NOAA